Latest Weather Observations for Ocean Reef

IDW60901

Issued at 6:21 am WST Friday 23 June 2017 (issued every 10 minutes, with the page automatically refreshed every 10 minutes)

About weather observations | Map of Perth area stations | Latest observations for Perth area | Other Formats
Station Details ID: 009214 Name: OCEAN REEF Lat: -31.76 Lon: 115.73 Height: 10.0 m
Data from the previous 72 hours. | See also: Recent months at Ocean Reef
Date/Time
WST
Temp
°C
App
Temp
°C
Dew
Point
°C
Rel
Hum
%
Delta-T
°C
Wind Press
QNH
hPa
Press
MSL
hPa
Rain since
9am
mm
Dir  Spd
km/h
Gust
km/h
Spd
kts
Gust
kts
23/06:00am - - - - - SE 17 28 9 15 - - -
23/05:30am - - - - - SE 19 32 10 17 - - -
23/05:00am - - - - - SE 20 30 11 16 - - -
23/04:30am - - - - - SE 20 28 11 15 - - -
23/04:00am - - - - - SE 13 20 7 11 - - -
23/03:30am - - - - - SE 17 26 9 14 - - -
23/03:00am - - - - - SE 20 33 11 18 - - -
23/02:30am - - - - - SE 17 22 9 12 - - -
23/02:00am - - - - - SSE 19 28 10 15 - - -
23/01:30am - - - - - SSE 20 26 11 14 - - -
23/01:00am - - - - - SSE 28 35 15 19 - - -
23/12:30am - - - - - SSE 24 35 13 19 - - -
23/12:00am - - - - - SSE 28 39 15 21 - - -
 
Date/Time
WST
Temp
°C
App
Temp
°C
Dew
Point
°C
Rel
Hum
%
Delta-T
°C
Wind Press
QNH
hPa
Press
MSL
hPa
Rain since
9am
mm
Dir  Spd
km/h
Gust
km/h
Spd
kts
Gust
kts
22/11:30pm - - - - - SSE 32 41 17 22 - - -
22/11:00pm - - - - - S 32 44 17 24 - - -
22/10:30pm - - - - - S 35 50 19 27 - - -
22/10:00pm - - - - - S 44 56 24 30 - - -
22/09:30pm - - - - - S 50 69 27 37 - - -
22/09:01pm - - - - - S 54 72 29 39 - - -
22/09:00pm - - - - - S 56 72 30 39 - - -
22/08:36pm - - - - - S 54 74 29 40 - - -
22/08:30pm - - - - - S 52 65 28 35 - - -
22/08:00pm - - - - - S 50 69 27 37 - - -
22/07:30pm - - - - - S 50 59 27 32 - - -
22/07:00pm - - - - - S 54 67 29 36 - - -
22/06:30pm - - - - - S 44 56 24 30 - - -
22/06:00pm - - - - - SSW 46 56 25 30 - - -
22/05:30pm - - - - - SSW 41 57 22 31 - - -
22/05:00pm - - - - - SSW 37 50 20 27 - - -
22/04:30pm - - - - - SSW 35 43 19 23 - - -
22/04:00pm - - - - - SSW 35 43 19 23 - - -
22/03:30pm - - - - - SW 33 39 18 21 - - -
22/03:00pm - - - - - SW 37 44 20 24 - - -
22/02:30pm - - - - - SW 37 46 20 25 - - -
22/02:00pm - - - - - SW 37 46 20 25 - - -
22/01:30pm - - - - - SW 41 50 22 27 - - -
22/01:00pm - - - - - SW 41 52 22 28 - - -
22/12:30pm - - - - - WSW 39 50 21 27 - - -
22/12:00pm - - - - - WSW 41 52 22 28 - - -
22/11:30am - - - - - WSW 41 50 22 27 - - -
22/11:00am - - - - - WSW 43 56 23 30 - - -
22/10:30am - - - - - W 46 54 25 29 - - -
22/10:00am - - - - - WSW 48 57 26 31 - - -
22/09:30am - - - - - W 48 59 26 32 - - -
22/09:00am - - - - - W 50 61 27 33 - - -
22/08:36am - - - - - W 52 70 28 38 - - -
22/08:30am - - - - - W 56 70 30 38 - - -
22/08:00am - - - - - W 57 70 31 38 - - -
22/07:41am - - - - - W 56 74 30 40 - - -
22/07:30am - - - - - W 56 72 30 39 - - -
22/07:00am - - - - - W 56 70 30 38 - - -
22/06:30am - - - - - W 54 69 29 37 - - -
22/06:00am - - - - - W 52 61 28 33 - - -
22/05:34am - - - - - NW 46 63 25 34 - - -
22/05:30am - - - - - NNW 52 70 28 38 - - -
22/05:13am - - - - - NNW 57 76 31 41 - - -
22/05:00am - - - - - NNW 57 72 31 39 - - -
22/04:30am - - - - - NW 59 74 32 40 - - -
22/04:04am - - - - - NW 59 78 32 42 - - -
22/04:00am - - - - - NW 59 76 32 41 - - -
22/03:31am - - - - - NW 57 76 31 41 - - -
22/03:30am - - - - - NW 56 69 30 37 - - -
22/03:10am - - - - - NNW 59 80 32 43 - - -
22/03:00am - - - - - NNW 61 74 33 40 - - -
22/02:48am - - - - - NNW 43 69 23 37 - - -
22/02:43am - - - - - NNW 46 69 25 37 - - -
22/02:41am - - - - - NNW 46 69 25 37 - - -
22/02:38am - - - - - NNW 44 67 24 36 - - -
22/02:30am - - - - - NNW 50 70 27 38 - - -
22/02:29am - - - - - NNW 54 70 29 38 - - -
22/02:17am - - - - - NNW 33 63 18 34 - - -
22/02:15am - - - - - N 32 56 17 30 - - -
22/02:09am - - - - - NNW 46 59 25 32 - - -
22/02:00am - - - - - NNW 50 61 27 33 - - -
22/01:30am - - - - - NNW 43 54 23 29 - - -
22/01:23am - - - - - N 28 54 15 29 - - -
22/01:17am - - - - - NNW 33 48 18 26 - - -
22/01:00am - - - - - NW 44 52 24 28 - - -
22/12:59am - - - - - NW 43 52 23 28 - - -
22/12:30am - - - - - NNW 39 61 21 33 - - -
22/12:29am - - - - - N 37 61 20 33 - - -
22/12:05am - - - - - N 28 48 15 26 - - -
22/12:00am - - - - - N 26 35 14 19 - - -
 
Date/Time
WST
Temp
°C
App
Temp
°C
Dew
Point
°C
Rel
Hum
%
Delta-T
°C
Wind Press
QNH
hPa
Press
MSL
hPa
Rain since
9am
mm
Dir  Spd
km/h
Gust
km/h
Spd
kts
Gust
kts
21/11:40pm - - - - - N 41 59 22 32 - - -
21/11:30pm - - - - - NNW 46 61 25 33 - - -
21/11:19pm - - - - - NW 37 50 20 27 - - -
21/11:00pm - - - - - NW 37 69 20 37 - - -
21/10:54pm - - - - - NNW 28 48 15 26 - - -
21/10:47pm - - - - - N 35 54 19 29 - - -
21/10:30pm - - - - - NNW 43 50 23 27 - - -
21/10:00pm - - - - - NW 44 54 24 29 - - -
21/09:30pm - - - - - NW 50 59 27 32 - - -
21/09:22pm - - - - - NW 57 76 31 41 - - -
21/09:00pm - - - - - NNW 56 70 30 38 - - -
21/08:51pm - - - - - NW 52 70 28 38 - - -
21/08:30pm - - - - - NW 52 59 28 32 - - -
21/08:00pm - - - - - NW 50 59 27 32 - - -
21/07:30pm - - - - - NW 48 63 26 34 - - -
21/07:00pm - - - - - NW 46 56 25 30 - - -
21/06:30pm - - - - - NW 50 63 27 34 - - -
21/06:00pm - - - - - NNW 46 56 25 30 - - -
21/05:30pm - - - - - NNW 44 54 24 29 - - -
21/05:11pm - - - - - WNW 43 61 23 33 - - -
21/05:00pm - - - - - NW 43 50 23 27 - - -
21/04:30pm - - - - - NW 46 52 25 28 - - -
21/04:00pm - - - - - NW 44 54 24 29 - - -
21/03:30pm - - - - - NW 37 44 20 24 - - -
21/03:00pm - - - - - NW 41 48 22 26 - - -
21/02:30pm - - - - - NW 39 46 21 25 - - -
21/02:00pm - - - - - NW 39 48 21 26 - - -
21/01:30pm - - - - - NW 39 46 21 25 - - -
21/01:00pm - - - - - NW 37 41 20 22 - - -
21/12:30pm - - - - - NW 37 44 20 24 - - -
21/12:00pm - - - - - NW 37 46 20 25 - - -
21/11:30am - - - - - NW 35 41 19 22 - - -
21/11:00am - - - - - NW 35 39 19 21 - - -
21/10:30am - - - - - NW 32 35 17 19 - - -
21/10:09am - - - - - NNW 20 35 11 19 - - -
21/10:00am - - - - - N 13 17 7 9 - - -
21/09:30am - - - - - NNE 17 26 9 14 - - -
21/09:00am - - - - - NNE 15 24 8 13 - - -
21/08:30am - - - - - NNE 17 26 9 14 - - -
21/08:00am - - - - - NNE 17 24 9 13 - - -
21/07:30am - - - - - NNE 20 28 11 15 - - -
21/07:00am - - - - - NNE 17 22 9 12 - - -
21/06:30am - - - - - WNW 32 35 17 19 - - -
21/06:00am - - - - - NNE 17 24 9 13 - - -
21/05:30am - - - - - NNW 11 17 6 9 - - -
21/05:00am - - - - - N 17 22 9 12 - - -
21/04:30am - - - - - NNE 15 22 8 12 - - -
21/04:00am - - - - - NNE 13 20 7 11 - - -
21/03:30am - - - - - NW 20 28 11 15 - - -
21/03:00am - - - - - WNW 30 33 16 18 - - -
21/02:30am - - - - - WNW 30 35 16 19 - - -
21/02:00am - - - - - WNW 32 39 17 21 - - -
21/01:30am - - - - - WNW 30 35 16 19 - - -
21/01:00am - - - - - WNW 32 43 17 23 - - -
21/12:30am - - - - - WNW 30 39 16 21 - - -
21/12:00am - - - - - NW 33 39 18 21 - - -
 
Date/Time
WST
Temp
°C
App
Temp
°C
Dew
Point
°C
Rel
Hum
%
Delta-T
°C
Wind Press
QNH
hPa
Press
MSL
hPa
Rain since
9am
mm
Dir  Spd
km/h
Gust
km/h
Spd
kts
Gust
kts
20/11:48pm - - - - - N 19 41 10 22 - - -
20/11:30pm - - - - - N 15 19 8 10 - - -
20/11:00pm - - - - - N 19 26 10 14 - - -
20/10:30pm - - - - - N 19 24 10 13 - - -
20/10:00pm - - - - - N 13 19 7 10 - - -
20/09:30pm - - - - - NNE 17 19 9 10 - - -
20/09:00pm - - - - - N 17 24 9 13 - - -
20/08:30pm - - - - - N 17 26 9 14 - - -
20/08:00pm - - - - - N 15 19 8 10 - - -
20/07:30pm - - - - - N 15 19 8 10 - - -
20/07:00pm - - - - - NNW 28 33 15 18 - - -
20/06:30pm - - - - - NNW 28 33 15 18 - - -
20/06:00pm - - - - - NW 28 33 15 18 - - -
20/05:30pm - - - - - NW 30 33 16 18 - - -
20/05:00pm - - - - - NW 32 37 17 20 - - -
20/04:30pm - - - - - NW 30 33 16 18 - - -
20/04:00pm - - - - - NW 28 32 15 17 - - -
20/03:30pm - - - - - NW 28 32 15 17 - - -
20/03:00pm - - - - - NW 26 32 14 17 - - -
20/02:30pm - - - - - NW 28 32 15 17 - - -
20/02:00pm - - - - - NNW 24 28 13 15 - - -
20/01:30pm - - - - - NNW 24 28 13 15 - - -
20/01:00pm - - - - - NNW 24 28 13 15 - - -
20/12:30pm - - - - - NNW 26 30 14 16 - - -
20/12:00pm - - - - - NNW 17 22 9 12 - - -
20/11:30am - - - - - NNW 11 13 6 7 - - -
20/11:00am - - - - - NNW 15 19 8 10 - - -
20/10:30am - - - - - N 13 17 7 9 - - -
20/10:00am - - - - - NE 13 19 7 10 - - -
20/09:30am - - - - - NNE 15 20 8 11 - - -
20/09:00am - - - - - NE 11 17 6 9 - - -
20/08:30am - - - - - NNE 6 7 3 4 - - -
20/08:00am - - - - - ENE 7 11 4 6 - - -
20/07:30am - - - - - NE 17 22 9 12 - - -
20/07:00am - - - - - NE 17 22 9 12 - - -
20/06:30am - - - - - ENE 19 20 10 11 - - -

Latest Capital City Observations: Canberra | Sydney | Melbourne | Brisbane | Adelaide | Perth | Hobart | Darwin

Other Formats:

Comma delimited format used in spreadsheet applications
http://www.bom.gov.au/fwo/IDW60901/IDW60901.94607.axf

JavaScript Object Notation format (JSON) in row-major order
http://www.bom.gov.au/fwo/IDW60901/IDW60901.94607.json